sensor_id;sensor_type;location;lat;lon;timestamp;P1;durP1;ratioP1;P2;durP2;ratioP2
42714;SDS011;28351;51.480;5.706;2023-03-21T00:01:09;16.43;;;8.90;;
42714;SDS011;28351;51.480;5.706;2023-03-21T00:03:36;21.50;;;9.25;;
42714;SDS011;28351;51.480;5.706;2023-03-21T00:06:09;17.80;;;9.45;;
42714;SDS011;28351;51.480;5.706;2023-03-21T00:08:36;20.52;;;9.75;;
42714;SDS011;28351;51.480;5.706;2023-03-21T00:11:03;19.05;;;8.80;;
42714;SDS011;28351;51.480;5.706;2023-03-21T00:13:31;21.95;;;9.38;;
42714;SDS011;28351;51.480;5.706;2023-03-21T00:18:31;17.45;;;8.65;;
42714;SDS011;28351;51.480;5.706;2023-03-21T00:21:03;15.40;;;8.10;;
42714;SDS011;28351;51.480;5.706;2023-03-21T00:23:30;19.40;;;8.98;;
42714;SDS011;28351;51.480;5.706;2023-03-21T00:25:56;17.23;;;7.70;;
42714;SDS011;28351;51.480;5.706;2023-03-21T00:28:22;16.90;;;8.77;;
42714;SDS011;28351;51.480;5.706;2023-03-21T00:30:49;19.08;;;8.70;;
42714;SDS011;28351;51.480;5.706;2023-03-21T00:33:14;17.83;;;8.77;;
42714;SDS011;28351;51.480;5.706;2023-03-21T00:35:44;12.90;;;8.40;;
42714;SDS011;28351;51.480;5.706;2023-03-21T00:38:12;20.30;;;9.02;;
42714;SDS011;28351;51.480;5.706;2023-03-21T00:40:38;17.35;;;7.90;;
42714;SDS011;28351;51.480;5.706;2023-03-21T00:43:04;13.98;;;7.93;;
42714;SDS011;28351;51.480;5.706;2023-03-21T00:45:30;18.67;;;8.20;;
42714;SDS011;28351;51.480;5.706;2023-03-21T00:47:56;16.27;;;7.93;;
42714;SDS011;28351;51.480;5.706;2023-03-21T00:50:22;17.08;;;9.40;;
42714;SDS011;28351;51.480;5.706;2023-03-21T00:52:48;20.10;;;7.60;;
42714;SDS011;28351;51.480;5.706;2023-03-21T00:55:15;17.20;;;7.88;;
42714;SDS011;28351;51.480;5.706;2023-03-21T00:57:42;14.65;;;7.97;;
42714;SDS011;28351;51.480;5.706;2023-03-21T01:00:09;16.70;;;8.02;;
42714;SDS011;28351;51.480;5.706;2023-03-21T01:02:37;14.15;;;8.05;;
42714;SDS011;28351;51.480;5.706;2023-03-21T01:05:07;17.17;;;8.27;;
42714;SDS011;28351;51.480;5.706;2023-03-21T01:07:35;12.68;;;7.75;;
42714;SDS011;28351;51.480;5.706;2023-03-21T01:10:01;13.05;;;7.60;;
42714;SDS011;28351;51.480;5.706;2023-03-21T01:12:26;15.70;;;7.88;;
42714;SDS011;28351;51.480;5.706;2023-03-21T01:14:52;15.10;;;7.05;;
42714;SDS011;28351;51.480;5.706;2023-03-21T01:17:20;15.68;;;7.55;;
42714;SDS011;28351;51.480;5.706;2023-03-21T01:19:46;14.00;;;6.75;;
42714;SDS011;28351;51.480;5.706;2023-03-21T01:22:12;13.95;;;7.47;;
42714;SDS011;28351;51.480;5.706;2023-03-21T01:24:37;12.88;;;7.03;;
42714;SDS011;28351;51.480;5.706;2023-03-21T01:27:03;13.23;;;6.63;;
42714;SDS011;28351;51.480;5.706;2023-03-21T01:29:31;14.73;;;7.28;;
42714;SDS011;28351;51.480;5.706;2023-03-21T01:31:57;13.38;;;7.65;;
42714;SDS011;28351;51.480;5.706;2023-03-21T01:34:23;14.18;;;7.25;;
42714;SDS011;28351;51.480;5.706;2023-03-21T01:36:48;16.73;;;7.88;;
42714;SDS011;28351;51.480;5.706;2023-03-21T01:39:14;18.92;;;7.20;;
42714;SDS011;28351;51.480;5.706;2023-03-21T01:41:40;13.43;;;7.05;;
42714;SDS011;28351;51.480;5.706;2023-03-21T01:44:06;10.95;;;7.10;;
42714;SDS011;28351;51.480;5.706;2023-03-21T01:46:48;19.30;;;7.45;;
42714;SDS011;28351;51.480;5.706;2023-03-21T01:49:20;16.80;;;7.43;;
42714;SDS011;28351;51.480;5.706;2023-03-21T01:51:53;13.60;;;6.35;;
42714;SDS011;28351;51.480;5.706;2023-03-21T01:54:28;12.15;;;6.28;;
42714;SDS011;28351;51.480;5.706;2023-03-21T01:56:57;14.02;;;6.60;;
42714;SDS011;28351;51.480;5.706;2023-03-21T01:59:27;12.02;;;6.88;;
42714;SDS011;28351;51.480;5.706;2023-03-21T02:02:00;17.33;;;7.38;;
42714;SDS011;28351;51.480;5.706;2023-03-21T02:04:34;14.50;;;7.38;;
42714;SDS011;28351;51.480;5.706;2023-03-21T02:07:03;11.65;;;7.05;;
42714;SDS011;28351;51.480;5.706;2023-03-21T02:09:38;19.02;;;7.32;;
42714;SDS011;28351;51.480;5.706;2023-03-21T02:12:08;13.80;;;7.10;;
42714;SDS011;28351;51.480;5.706;2023-03-21T02:14:34;14.63;;;7.68;;
42714;SDS011;28351;51.480;5.706;2023-03-21T02:28:12;16.67;;;7.10;;
42714;SDS011;28351;51.480;5.706;2023-03-21T02:38:46;16.60;;;7.82;;
42714;SDS011;28351;51.480;5.706;2023-03-21T02:41:43;15.10;;;7.28;;
42714;SDS011;28351;51.480;5.706;2023-03-21T02:46:52;16.52;;;7.03;;
42714;SDS011;28351;51.480;5.706;2023-03-21T02:51:51;17.73;;;6.75;;
42714;SDS011;28351;51.480;5.706;2023-03-21T02:54:18;16.33;;;6.55;;
42714;SDS011;28351;51.480;5.706;2023-03-21T02:56:47;13.80;;;6.97;;
42714;SDS011;28351;51.480;5.706;2023-03-21T02:59:15;19.00;;;6.50;;
42714;SDS011;28351;51.480;5.706;2023-03-21T03:01:42;13.38;;;6.55;;
42714;SDS011;28351;51.480;5.706;2023-03-21T03:04:21;15.65;;;6.93;;
42714;SDS011;28351;51.480;5.706;2023-03-21T03:06:58;19.27;;;7.57;;
42714;SDS011;28351;51.480;5.706;2023-03-21T03:10:00;18.77;;;7.25;;
42714;SDS011;28351;51.480;5.706;2023-03-21T03:12:36;14.77;;;7.30;;
42714;SDS011;28351;51.480;5.706;2023-03-21T03:17:53;15.52;;;7.32;;
42714;SDS011;28351;51.480;5.706;2023-03-21T03:20:23;15.50;;;6.47;;
42714;SDS011;28351;51.480;5.706;2023-03-21T03:23:15;17.85;;;7.18;;
42714;SDS011;28351;51.480;5.706;2023-03-21T03:26:07;15.15;;;6.65;;
42714;SDS011;28351;51.480;5.706;2023-03-21T03:28:40;15.00;;;7.25;;
42714;SDS011;28351;51.480;5.706;2023-03-21T03:31:11;15.70;;;7.05;;
42714;SDS011;28351;51.480;5.706;2023-03-21T03:33:41;14.30;;;6.80;;
42714;SDS011;28351;51.480;5.706;2023-03-21T03:36:11;17.85;;;7.65;;
42714;SDS011;28351;51.480;5.706;2023-03-21T03:38:39;15.10;;;7.45;;
42714;SDS011;28351;51.480;5.706;2023-03-21T03:41:10;18.13;;;6.93;;
42714;SDS011;28351;51.480;5.706;2023-03-21T03:43:44;19.30;;;7.47;;
42714;SDS011;28351;51.480;5.706;2023-03-21T03:46:31;13.70;;;6.22;;
42714;SDS011;28351;51.480;5.706;2023-03-21T03:49:08;15.27;;;7.10;;
42714;SDS011;28351;51.480;5.706;2023-03-21T03:54:43;21.98;;;7.40;;
42714;SDS011;28351;51.480;5.706;2023-03-21T03:57:11;17.67;;;7.60;;
42714;SDS011;28351;51.480;5.706;2023-03-21T03:59:39;27.77;;;8.40;;
42714;SDS011;28351;51.480;5.706;2023-03-21T04:04:32;17.48;;;7.65;;
42714;SDS011;28351;51.480;5.706;2023-03-21T04:06:59;19.63;;;8.05;;
42714;SDS011;28351;51.480;5.706;2023-03-21T04:09:27;18.30;;;8.48;;
42714;SDS011;28351;51.480;5.706;2023-03-21T04:11:53;21.05;;;9.13;;
42714;SDS011;28351;51.480;5.706;2023-03-21T04:14:19;17.85;;;7.93;;
42714;SDS011;28351;51.480;5.706;2023-03-21T04:16:44;18.63;;;8.50;;
42714;SDS011;28351;51.480;5.706;2023-03-21T04:19:10;21.10;;;8.88;;
42714;SDS011;28351;51.480;5.706;2023-03-21T04:21:40;21.30;;;8.85;;
42714;SDS011;28351;51.480;5.706;2023-03-21T04:24:05;20.80;;;8.40;;
42714;SDS011;28351;51.480;5.706;2023-03-21T04:26:32;15.15;;;8.05;;
42714;SDS011;28351;51.480;5.706;2023-03-21T04:28:59;21.75;;;8.63;;
42714;SDS011;28351;51.480;5.706;2023-03-21T04:31:26;18.80;;;8.07;;
42714;SDS011;28351;51.480;5.706;2023-03-21T04:33:55;18.75;;;7.97;;
42714;SDS011;28351;51.480;5.706;2023-03-21T04:36:21;15.95;;;8.68;;
42714;SDS011;28351;51.480;5.706;2023-03-21T04:38:54;24.33;;;8.02;;
42714;SDS011;28351;51.480;5.706;2023-03-21T04:41:25;14.25;;;7.70;;
42714;SDS011;28351;51.480;5.706;2023-03-21T04:43:51;18.52;;;8.00;;
42714;SDS011;28351;51.480;5.706;2023-03-21T04:46:17;23.95;;;8.85;;
42714;SDS011;28351;51.480;5.706;2023-03-21T04:48:43;19.65;;;8.25;;
42714;SDS011;28351;51.480;5.706;2023-03-21T04:51:08;17.10;;;7.95;;
42714;SDS011;28351;51.480;5.706;2023-03-21T04:53:34;17.25;;;8.35;;
42714;SDS011;28351;51.480;5.706;2023-03-21T04:56:02;17.92;;;8.02;;
42714;SDS011;28351;51.480;5.706;2023-03-21T04:58:28;22.38;;;7.70;;
42714;SDS011;28351;51.480;5.706;2023-03-21T05:00:54;17.90;;;8.15;;
42714;SDS011;28351;51.480;5.706;2023-03-21T05:03:21;16.25;;;8.07;;
42714;SDS011;28351;51.480;5.706;2023-03-21T05:05:47;20.35;;;8.77;;
42714;SDS011;28351;51.480;5.706;2023-03-21T05:08:13;21.88;;;8.65;;
42714;SDS011;28351;51.480;5.706;2023-03-21T05:10:39;17.88;;;7.95;;
42714;SDS011;28351;51.480;5.706;2023-03-21T05:13:05;16.90;;;7.35;;
42714;SDS011;28351;51.480;5.706;2023-03-21T05:15:30;17.00;;;8.32;;
42714;SDS011;28351;51.480;5.706;2023-03-21T05:17:56;17.85;;;8.55;;
42714;SDS011;28351;51.480;5.706;2023-03-21T05:20:34;18.38;;;8.23;;
42714;SDS011;28351;51.480;5.706;2023-03-21T05:23:06;15.90;;;7.63;;
42714;SDS011;28351;51.480;5.706;2023-03-21T05:25:36;16.10;;;7.75;;
42714;SDS011;28351;51.480;5.706;2023-03-21T05:28:04;13.20;;;7.45;;
42714;SDS011;28351;51.480;5.706;2023-03-21T05:30:30;17.13;;;7.30;;
42714;SDS011;28351;51.480;5.706;2023-03-21T05:32:57;17.45;;;8.35;;
42714;SDS011;28351;51.480;5.706;2023-03-21T05:35:23;14.43;;;7.63;;
42714;SDS011;28351;51.480;5.706;2023-03-21T05:37:48;16.90;;;7.82;;
42714;SDS011;28351;51.480;5.706;2023-03-21T05:40:14;17.27;;;7.45;;
42714;SDS011;28351;51.480;5.706;2023-03-21T05:42:39;17.10;;;6.72;;
42714;SDS011;28351;51.480;5.706;2023-03-21T05:45:05;20.52;;;7.40;;
42714;SDS011;28351;51.480;5.706;2023-03-21T05:47:31;17.30;;;7.22;;
42714;SDS011;28351;51.480;5.706;2023-03-21T05:49:57;15.60;;;7.03;;
42714;SDS011;28351;51.480;5.706;2023-03-21T05:52:22;16.35;;;7.10;;
42714;SDS011;28351;51.480;5.706;2023-03-21T05:54:49;16.52;;;6.97;;
42714;SDS011;28351;51.480;5.706;2023-03-21T05:57:14;15.15;;;6.72;;
42714;SDS011;28351;51.480;5.706;2023-03-21T05:59:43;14.77;;;6.68;;
42714;SDS011;28351;51.480;5.706;2023-03-21T06:02:09;15.05;;;6.22;;
42714;SDS011;28351;51.480;5.706;2023-03-21T06:04:35;12.85;;;5.72;;
42714;SDS011;28351;51.480;5.706;2023-03-21T06:07:01;12.27;;;6.07;;
42714;SDS011;28351;51.480;5.706;2023-03-21T06:09:27;15.07;;;6.30;;
42714;SDS011;28351;51.480;5.706;2023-03-21T06:11:55;15.38;;;6.82;;
42714;SDS011;28351;51.480;5.706;2023-03-21T06:14:24;18.05;;;6.70;;
42714;SDS011;28351;51.480;5.706;2023-03-21T06:16:50;16.98;;;6.47;;
42714;SDS011;28351;51.480;5.706;2023-03-21T06:19:17;17.53;;;5.93;;
42714;SDS011;28351;51.480;5.706;2023-03-21T06:21:43;15.07;;;6.47;;
42714;SDS011;28351;51.480;5.706;2023-03-21T06:24:09;12.65;;;5.63;;
42714;SDS011;28351;51.480;5.706;2023-03-21T06:26:35;10.88;;;5.70;;
42714;SDS011;28351;51.480;5.706;2023-03-21T06:29:00;12.57;;;4.95;;
42714;SDS011;28351;51.480;5.706;2023-03-21T06:31:26;9.98;;;5.55;;
42714;SDS011;28351;51.480;5.706;2023-03-21T06:33:52;10.70;;;5.18;;
42714;SDS011;28351;51.480;5.706;2023-03-21T06:36:18;14.00;;;6.22;;
42714;SDS011;28351;51.480;5.706;2023-03-21T06:38:44;13.93;;;5.57;;
42714;SDS011;28351;51.480;5.706;2023-03-21T06:41:11;8.80;;;4.40;;
42714;SDS011;28351;51.480;5.706;2023-03-21T06:43:37;13.45;;;5.03;;
42714;SDS011;28351;51.480;5.706;2023-03-21T06:46:02;10.40;;;4.43;;
42714;SDS011;28351;51.480;5.706;2023-03-21T06:48:29;9.75;;;4.60;;
42714;SDS011;28351;51.480;5.706;2023-03-21T06:50:55;11.20;;;4.95;;
42714;SDS011;28351;51.480;5.706;2023-03-21T06:53:22;12.82;;;5.18;;
42714;SDS011;28351;51.480;5.706;2023-03-21T06:55:51;13.95;;;4.88;;
42714;SDS011;28351;51.480;5.706;2023-03-21T06:58:18;11.43;;;4.65;;
42714;SDS011;28351;51.480;5.706;2023-03-21T07:00:44;12.98;;;5.13;;
42714;SDS011;28351;51.480;5.706;2023-03-21T07:03:10;10.80;;;5.45;;
42714;SDS011;28351;51.480;5.706;2023-03-21T07:05:36;10.85;;;4.82;;
42714;SDS011;28351;51.480;5.706;2023-03-21T07:08:03;10.35;;;4.80;;
42714;SDS011;28351;51.480;5.706;2023-03-21T07:10:29;10.55;;;4.90;;
42714;SDS011;28351;51.480;5.706;2023-03-21T07:12:54;12.27;;;4.93;;
42714;SDS011;28351;51.480;5.706;2023-03-21T07:15:22;10.52;;;4.93;;
42714;SDS011;28351;51.480;5.706;2023-03-21T07:17:48;13.98;;;5.13;;
42714;SDS011;28351;51.480;5.706;2023-03-21T07:20:13;9.98;;;4.93;;
42714;SDS011;28351;51.480;5.706;2023-03-21T07:22:44;13.38;;;5.68;;
42714;SDS011;28351;51.480;5.706;2023-03-21T07:25:10;14.70;;;5.72;;
42714;SDS011;28351;51.480;5.706;2023-03-21T07:27:37;12.20;;;5.20;;
42714;SDS011;28351;51.480;5.706;2023-03-21T07:30:03;11.07;;;5.68;;
42714;SDS011;28351;51.480;5.706;2023-03-21T07:32:32;17.00;;;7.20;;
42714;SDS011;28351;51.480;5.706;2023-03-21T07:35:00;10.55;;;6.13;;
42714;SDS011;28351;51.480;5.706;2023-03-21T07:37:26;14.00;;;5.88;;
42714;SDS011;28351;51.480;5.706;2023-03-21T07:39:55;13.55;;;5.20;;
42714;SDS011;28351;51.480;5.706;2023-03-21T07:42:25;13.75;;;5.57;;
42714;SDS011;28351;51.480;5.706;2023-03-21T07:44:54;14.55;;;6.25;;
42714;SDS011;28351;51.480;5.706;2023-03-21T07:47:22;16.17;;;6.32;;
42714;SDS011;28351;51.480;5.706;2023-03-21T07:49:47;12.05;;;5.65;;
42714;SDS011;28351;51.480;5.706;2023-03-21T07:52:13;14.38;;;5.85;;
42714;SDS011;28351;51.480;5.706;2023-03-21T07:54:40;11.18;;;4.88;;
42714;SDS011;28351;51.480;5.706;2023-03-21T07:57:06;13.20;;;5.60;;
42714;SDS011;28351;51.480;5.706;2023-03-21T07:59:31;12.80;;;6.15;;
42714;SDS011;28351;51.480;5.706;2023-03-21T08:01:57;14.55;;;6.15;;
42714;SDS011;28351;51.480;5.706;2023-03-21T08:04:46;15.80;;;5.68;;
42714;SDS011;28351;51.480;5.706;2023-03-21T08:07:12;10.93;;;5.32;;
42714;SDS011;28351;51.480;5.706;2023-03-21T08:09:37;14.77;;;5.63;;
42714;SDS011;28351;51.480;5.706;2023-03-21T08:12:04;12.40;;;5.75;;
42714;SDS011;28351;51.480;5.706;2023-03-21T08:14:32;14.32;;;6.03;;
42714;SDS011;28351;51.480;5.706;2023-03-21T08:16:58;11.10;;;5.82;;
42714;SDS011;28351;51.480;5.706;2023-03-21T08:19:24;14.95;;;6.25;;
42714;SDS011;28351;51.480;5.706;2023-03-21T08:21:51;11.60;;;5.55;;
42714;SDS011;28351;51.480;5.706;2023-03-21T08:24:17;12.93;;;6.35;;
42714;SDS011;28351;51.480;5.706;2023-03-21T08:26:43;16.85;;;6.22;;
42714;SDS011;28351;51.480;5.706;2023-03-21T08:29:10;14.80;;;6.03;;
42714;SDS011;28351;51.480;5.706;2023-03-21T08:31:39;16.33;;;6.03;;
42714;SDS011;28351;51.480;5.706;2023-03-21T08:34:05;12.95;;;6.13;;
42714;SDS011;28351;51.480;5.706;2023-03-21T08:36:31;13.65;;;5.75;;
42714;SDS011;28351;51.480;5.706;2023-03-21T08:38:57;13.23;;;5.53;;
42714;SDS011;28351;51.480;5.706;2023-03-21T08:41:30;13.73;;;6.70;;
42714;SDS011;28351;51.480;5.706;2023-03-21T08:43:56;11.15;;;5.57;;
42714;SDS011;28351;51.480;5.706;2023-03-21T08:46:24;16.48;;;6.05;;
42714;SDS011;28351;51.480;5.706;2023-03-21T08:48:50;14.90;;;6.70;;
42714;SDS011;28351;51.480;5.706;2023-03-21T08:51:16;17.65;;;5.28;;
42714;SDS011;28351;51.480;5.706;2023-03-21T08:53:42;10.93;;;5.80;;
42714;SDS011;28351;51.480;5.706;2023-03-21T08:56:08;13.98;;;6.20;;
42714;SDS011;28351;51.480;5.706;2023-03-21T08:58:35;11.90;;;5.70;;
42714;SDS011;28351;51.480;5.706;2023-03-21T09:01:01;15.05;;;6.05;;
42714;SDS011;28351;51.480;5.706;2023-03-21T09:03:27;13.95;;;6.45;;
42714;SDS011;28351;51.480;5.706;2023-03-21T09:05:54;14.05;;;5.97;;
42714;SDS011;28351;51.480;5.706;2023-03-21T09:08:21;21.13;;;6.32;;
42714;SDS011;28351;51.480;5.706;2023-03-21T09:10:48;13.20;;;7.15;;
42714;SDS011;28351;51.480;5.706;2023-03-21T09:13:17;14.05;;;5.97;;
42714;SDS011;28351;51.480;5.706;2023-03-21T09:15:43;16.35;;;6.32;;
42714;SDS011;28351;51.480;5.706;2023-03-21T09:18:09;11.88;;;6.25;;
42714;SDS011;28351;51.480;5.706;2023-03-21T09:20:39;12.63;;;6.30;;
42714;SDS011;28351;51.480;5.706;2023-03-21T09:23:07;16.80;;;6.70;;
42714;SDS011;28351;51.480;5.706;2023-03-21T09:25:34;12.35;;;6.53;;
42714;SDS011;28351;51.480;5.706;2023-03-21T09:28:01;9.43;;;5.75;;
42714;SDS011;28351;51.480;5.706;2023-03-21T09:30:29;13.48;;;6.53;;
42714;SDS011;28351;51.480;5.706;2023-03-21T09:32:57;11.95;;;6.60;;
42714;SDS011;28351;51.480;5.706;2023-03-21T09:35:24;11.30;;;6.32;;
42714;SDS011;28351;51.480;5.706;2023-03-21T09:37:51;14.77;;;6.15;;
42714;SDS011;28351;51.480;5.706;2023-03-21T09:40:36;13.65;;;5.72;;
42714;SDS011;28351;51.480;5.706;2023-03-21T09:43:29;14.07;;;5.90;;
42714;SDS011;28351;51.480;5.706;2023-03-21T09:46:17;11.50;;;5.30;;
42714;SDS011;28351;51.480;5.706;2023-03-21T09:49:05;15.38;;;6.15;;
42714;SDS011;28351;51.480;5.706;2023-03-21T09:51:40;15.02;;;5.80;;
42714;SDS011;28351;51.480;5.706;2023-03-21T09:54:24;9.48;;;5.32;;
42714;SDS011;28351;51.480;5.706;2023-03-21T09:56:53;16.75;;;6.53;;
42714;SDS011;28351;51.480;5.706;2023-03-21T09:59:33;15.18;;;6.13;;
42714;SDS011;28351;51.480;5.706;2023-03-21T10:02:02;9.40;;;5.18;;
42714;SDS011;28351;51.480;5.706;2023-03-21T10:04:39;8.35;;;5.38;;
42714;SDS011;28351;51.480;5.706;2023-03-21T10:07:08;11.02;;;5.25;;
42714;SDS011;28351;51.480;5.706;2023-03-21T10:09:42;9.73;;;4.97;;
42714;SDS011;28351;51.480;5.706;2023-03-21T10:12:21;12.27;;;4.93;;
42714;SDS011;28351;51.480;5.706;2023-03-21T10:14:52;13.18;;;5.30;;
42714;SDS011;28351;51.480;5.706;2023-03-21T10:20:03;10.00;;;4.50;;
42714;SDS011;28351;51.480;5.706;2023-03-21T10:22:34;7.43;;;4.13;;
42714;SDS011;28351;51.480;5.706;2023-03-21T10:25:01;8.82;;;3.88;;
42714;SDS011;28351;51.480;5.706;2023-03-21T10:27:27;7.15;;;3.90;;
42714;SDS011;28351;51.480;5.706;2023-03-21T10:29:53;6.32;;;3.53;;
42714;SDS011;28351;51.480;5.706;2023-03-21T10:32:21;7.20;;;3.75;;
42714;SDS011;28351;51.480;5.706;2023-03-21T10:34:51;8.13;;;3.85;;
42714;SDS011;28351;51.480;5.706;2023-03-21T10:37:19;5.70;;;3.85;;
42714;SDS011;28351;51.480;5.706;2023-03-21T10:39:46;8.35;;;3.72;;
42714;SDS011;28351;51.480;5.706;2023-03-21T10:42:19;12.75;;;4.43;;
42714;SDS011;28351;51.480;5.706;2023-03-21T10:44:57;9.23;;;3.90;;
42714;SDS011;28351;51.480;5.706;2023-03-21T10:47:24;8.88;;;3.30;;
42714;SDS011;28351;51.480;5.706;2023-03-21T10:50:00;7.88;;;3.50;;
42714;SDS011;28351;51.480;5.706;2023-03-21T10:52:28;7.13;;;3.90;;
42714;SDS011;28351;51.480;5.706;2023-03-21T10:55:32;8.38;;;4.13;;
42714;SDS011;28351;51.480;5.706;2023-03-21T10:57:56;7.72;;;3.83;;
42714;SDS011;28351;51.480;5.706;2023-03-21T11:00:27;6.57;;;3.80;;
42714;SDS011;28351;51.480;5.706;2023-03-21T11:02:57;10.18;;;3.85;;
42714;SDS011;28351;51.480;5.706;2023-03-21T11:05:26;6.63;;;3.75;;
42714;SDS011;28351;51.480;5.706;2023-03-21T11:08:20;7.50;;;4.15;;
42714;SDS011;28351;51.480;5.706;2023-03-21T11:13:24;10.80;;;4.25;;
42714;SDS011;28351;51.480;5.706;2023-03-21T11:15:57;9.38;;;4.38;;
42714;SDS011;28351;51.480;5.706;2023-03-21T11:18:31;10.35;;;4.20;;
42714;SDS011;28351;51.480;5.706;2023-03-21T11:21:06;6.90;;;4.10;;
42714;SDS011;28351;51.480;5.706;2023-03-21T11:23:43;9.70;;;3.92;;
42714;SDS011;28351;51.480;5.706;2023-03-21T11:26:18;8.13;;;3.92;;
42714;SDS011;28351;51.480;5.706;2023-03-21T11:28:50;9.35;;;4.00;;
42714;SDS011;28351;51.480;5.706;2023-03-21T11:31:16;8.68;;;3.80;;
42714;SDS011;28351;51.480;5.706;2023-03-21T11:33:51;8.43;;;4.10;;
42714;SDS011;28351;51.480;5.706;2023-03-21T11:38:53;7.20;;;4.10;;
42714;SDS011;28351;51.480;5.706;2023-03-21T11:41:23;6.43;;;2.95;;
42714;SDS011;28351;51.480;5.706;2023-03-21T11:43:50;12.43;;;4.20;;
42714;SDS011;28351;51.480;5.706;2023-03-21T11:46:21;6.05;;;3.17;;
42714;SDS011;28351;51.480;5.706;2023-03-21T11:48:55;7.18;;;3.40;;
42714;SDS011;28351;51.480;5.706;2023-03-21T12:05:07;8.07;;;3.17;;
42714;SDS011;28351;51.480;5.706;2023-03-21T12:10:23;8.10;;;3.10;;
42714;SDS011;28351;51.480;5.706;2023-03-21T12:21:08;5.90;;;2.78;;
42714;SDS011;28351;51.480;5.706;2023-03-21T12:26:39;5.07;;;2.40;;
42714;SDS011;28351;51.480;5.706;2023-03-21T12:46:34;5.18;;;2.83;;
42714;SDS011;28351;51.480;5.706;2023-03-21T12:49:14;6.07;;;2.25;;
42714;SDS011;28351;51.480;5.706;2023-03-21T13:02:46;5.60;;;2.05;;
42714;SDS011;28351;51.480;5.706;2023-03-21T13:11:04;6.93;;;2.53;;
42714;SDS011;28351;51.480;5.706;2023-03-21T13:16:48;5.47;;;2.55;;
42714;SDS011;28351;51.480;5.706;2023-03-21T13:19:27;5.65;;;2.85;;
42714;SDS011;28351;51.480;5.706;2023-03-21T13:22:06;7.40;;;2.67;;
42714;SDS011;28351;51.480;5.706;2023-03-21T13:24:56;5.35;;;2.50;;
42714;SDS011;28351;51.480;5.706;2023-03-21T13:31:14;5.65;;;2.67;;
42714;SDS011;28351;51.480;5.706;2023-03-21T13:34:02;6.80;;;2.67;;
42714;SDS011;28351;51.480;5.706;2023-03-21T13:36:33;4.45;;;2.85;;
42714;SDS011;28351;51.480;5.706;2023-03-21T13:39:03;4.75;;;2.65;;
42714;SDS011;28351;51.480;5.706;2023-03-21T13:41:39;3.87;;;2.33;;
42714;SDS011;28351;51.480;5.706;2023-03-21T13:44:24;4.95;;;2.97;;
42714;SDS011;28351;51.480;5.706;2023-03-21T13:47:02;6.93;;;2.85;;
42714;SDS011;28351;51.480;5.706;2023-03-21T13:52:23;6.40;;;3.15;;
42714;SDS011;28351;51.480;5.706;2023-03-21T13:54:52;6.78;;;2.88;;
42714;SDS011;28351;51.480;5.706;2023-03-21T13:57:38;7.03;;;3.00;;
42714;SDS011;28351;51.480;5.706;2023-03-21T14:02:52;6.53;;;2.85;;
42714;SDS011;28351;51.480;5.706;2023-03-21T14:05:30;8.00;;;3.85;;
42714;SDS011;28351;51.480;5.706;2023-03-21T14:07:59;8.63;;;3.25;;
42714;SDS011;28351;51.480;5.706;2023-03-21T14:10:33;11.70;;;3.13;;
42714;SDS011;28351;51.480;5.706;2023-03-21T14:13:04;5.05;;;2.85;;
42714;SDS011;28351;51.480;5.706;2023-03-21T14:15:36;10.07;;;2.92;;
42714;SDS011;28351;51.480;5.706;2023-03-21T14:18:12;5.90;;;3.05;;
42714;SDS011;28351;51.480;5.706;2023-03-21T14:20:40;7.57;;;3.97;;
42714;SDS011;28351;51.480;5.706;2023-03-21T14:23:07;5.00;;;3.17;;
42714;SDS011;28351;51.480;5.706;2023-03-21T14:25:38;7.40;;;3.50;;
42714;SDS011;28351;51.480;5.706;2023-03-21T14:28:32;7.97;;;2.97;;
42714;SDS011;28351;51.480;5.706;2023-03-21T14:30:59;8.15;;;3.47;;
42714;SDS011;28351;51.480;5.706;2023-03-21T14:33:26;8.55;;;2.97;;
42714;SDS011;28351;51.480;5.706;2023-03-21T14:35:57;5.15;;;2.55;;
42714;SDS011;28351;51.480;5.706;2023-03-21T14:38:25;5.65;;;2.60;;
42714;SDS011;28351;51.480;5.706;2023-03-21T14:40:56;5.97;;;2.35;;
42714;SDS011;28351;51.480;5.706;2023-03-21T14:43:25;4.88;;;2.40;;
42714;SDS011;28351;51.480;5.706;2023-03-21T14:45:54;6.50;;;2.95;;
42714;SDS011;28351;51.480;5.706;2023-03-21T14:48:28;4.68;;;2.70;;
42714;SDS011;28351;51.480;5.706;2023-03-21T14:51:02;5.57;;;2.33;;
42714;SDS011;28351;51.480;5.706;2023-03-21T14:53:34;7.35;;;2.50;;
42714;SDS011;28351;51.480;5.706;2023-03-21T14:58:46;3.13;;;2.58;;
42714;SDS011;28351;51.480;5.706;2023-03-21T15:01:16;3.97;;;2.47;;
42714;SDS011;28351;51.480;5.706;2023-03-21T15:03:56;5.82;;;3.10;;
42714;SDS011;28351;51.480;5.706;2023-03-21T15:06:23;6.18;;;3.00;;
42714;SDS011;28351;51.480;5.706;2023-03-21T15:08:53;6.20;;;2.88;;
42714;SDS011;28351;51.480;5.706;2023-03-21T15:11:36;3.38;;;2.42;;
42714;SDS011;28351;51.480;5.706;2023-03-21T15:14:06;8.52;;;2.80;;
42714;SDS011;28351;51.480;5.706;2023-03-21T15:16:33;4.35;;;2.75;;
42714;SDS011;28351;51.480;5.706;2023-03-21T15:19:00;5.53;;;3.10;;
42714;SDS011;28351;51.480;5.706;2023-03-21T15:21:30;6.05;;;2.80;;
42714;SDS011;28351;51.480;5.706;2023-03-21T15:24:04;4.70;;;2.90;;
42714;SDS011;28351;51.480;5.706;2023-03-21T15:26:37;7.03;;;3.00;;
42714;SDS011;28351;51.480;5.706;2023-03-21T15:29:07;4.95;;;2.33;;
42714;SDS011;28351;51.480;5.706;2023-03-21T15:31:36;5.68;;;2.45;;
42714;SDS011;28351;51.480;5.706;2023-03-21T15:36:42;5.50;;;2.15;;
42714;SDS011;28351;51.480;5.706;2023-03-21T15:39:19;3.58;;;1.92;;
42714;SDS011;28351;51.480;5.706;2023-03-21T15:42:01;4.07;;;1.98;;
42714;SDS011;28351;51.480;5.706;2023-03-21T15:44:46;5.22;;;2.20;;
42714;SDS011;28351;51.480;5.706;2023-03-21T15:47:33;4.22;;;2.10;;
42714;SDS011;28351;51.480;5.706;2023-03-21T15:52:48;4.13;;;2.03;;
42714;SDS011;28351;51.480;5.706;2023-03-21T15:55:16;4.00;;;2.03;;
42714;SDS011;28351;51.480;5.706;2023-03-21T15:57:48;3.50;;;2.00;;
42714;SDS011;28351;51.480;5.706;2023-03-21T16:03:22;4.60;;;2.17;;
42714;SDS011;28351;51.480;5.706;2023-03-21T16:08:48;3.65;;;2.05;;
42714;SDS011;28351;51.480;5.706;2023-03-21T16:11:28;5.88;;;2.40;;
42714;SDS011;28351;51.480;5.706;2023-03-21T16:14:01;4.68;;;2.30;;
42714;SDS011;28351;51.480;5.706;2023-03-21T16:16:27;4.63;;;2.10;;
42714;SDS011;28351;51.480;5.706;2023-03-21T16:18:55;6.15;;;2.28;;
42714;SDS011;28351;51.480;5.706;2023-03-21T16:21:23;5.73;;;2.30;;
42714;SDS011;28351;51.480;5.706;2023-03-21T16:23:50;2.97;;;2.13;;
42714;SDS011;28351;51.480;5.706;2023-03-21T16:26:20;4.57;;;2.53;;
42714;SDS011;28351;51.480;5.706;2023-03-21T16:28:47;5.78;;;2.50;;
42714;SDS011;28351;51.480;5.706;2023-03-21T16:31:15;5.60;;;2.17;;
42714;SDS011;28351;51.480;5.706;2023-03-21T16:33:42;5.40;;;2.45;;
42714;SDS011;28351;51.480;5.706;2023-03-21T16:36:19;4.78;;;2.83;;
42714;SDS011;28351;51.480;5.706;2023-03-21T16:38:47;7.25;;;2.35;;
42714;SDS011;28351;51.480;5.706;2023-03-21T16:41:16;6.00;;;2.92;;
42714;SDS011;28351;51.480;5.706;2023-03-21T16:43:42;8.00;;;2.97;;
42714;SDS011;28351;51.480;5.706;2023-03-21T16:46:22;5.25;;;2.47;;
42714;SDS011;28351;51.480;5.706;2023-03-21T16:48:52;8.70;;;2.83;;
42714;SDS011;28351;51.480;5.706;2023-03-21T16:51:31;6.80;;;2.78;;
42714;SDS011;28351;51.480;5.706;2023-03-21T16:53:59;5.60;;;2.80;;
42714;SDS011;28351;51.480;5.706;2023-03-21T16:56:26;4.45;;;2.78;;
42714;SDS011;28351;51.480;5.706;2023-03-21T16:58:55;10.88;;;2.72;;
42714;SDS011;28351;51.480;5.706;2023-03-21T17:01:22;5.65;;;3.05;;
42714;SDS011;28351;51.480;5.706;2023-03-21T17:03:51;5.50;;;2.97;;
42714;SDS011;28351;51.480;5.706;2023-03-21T17:06:18;5.40;;;3.20;;